Time;durP1;ratioP1;P1;durP2;ratioP2;P2;SDS_P1;SDS_P2;PMS_P1;PMS_P2;Temp;Humidity;BMP_temperature;BMP_pressure;BME280_temperature;BME280_humidity;BME280_pressure;Samples;Min_cycle;Max_cycle;Signal;HPM_P1;HPM_P2
2024/01/28 00:04:52;;;;;;;15.57;10.50;;;;;;;21.83;47.82;102225.28;31126826;28;20359;-53
2024/01/28 00:19:55;;;;;;;13.90;9.75;;;;;;;21.78;48.02;102204.72;31125765;28;20311;-54
2024/01/28 00:34:58;;;;;;;10.77;7.07;;;;;;;21.79;47.48;102195.91;31124145;28;20227;-54
2024/01/28 00:50:02;;;;;;;8.48;6.38;;;;;;;21.75;47.31;102172.16;31127806;28;20663;-56
2024/01/28 01:05:06;;;;;;;8.88;6.22;;;;;;;21.73;47.54;102171.63;31130127;28;20471;-55
2024/01/28 01:20:10;;;;;;;7.90;5.03;;;;;;;21.72;47.31;102164.28;31137346;28;20232;-56
2024/01/28 01:35:14;;;;;;;5.97;3.78;;;;;;;21.72;47.22;102158.59;31123851;28;20233;-55
2024/01/28 01:50:19;;;;;;;5.50;3.72;;;;;;;21.71;47.11;102171.09;31131382;28;20539;-53
2024/01/28 02:05:22;;;;;;;5.28;3.60;;;;;;;21.67;46.80;102151.06;31114749;28;20200;-55
2024/01/28 02:20:25;;;;;;;3.63;2.40;;;;;;;21.65;46.65;102139.19;31122112;28;20616;-54
2024/01/28 02:35:30;;;;;;;3.97;2.95;;;;;;;21.65;46.72;102118.53;31139248;28;20228;-56
2024/01/28 02:50:33;;;;;;;3.67;2.20;;;;;;;21.64;46.46;102111.16;31131141;28;20231;-58
2024/01/28 03:05:36;;;;;;;4.50;2.47;;;;;;;21.63;46.75;102098.16;31145052;28;20209;-52
2024/01/28 03:20:39;;;;;;;2.65;1.73;;;;;;;21.62;46.35;102077.47;31138746;28;20319;-54
2024/01/28 03:35:42;;;;;;;3.00;1.83;;;;;;;21.59;46.70;102060.25;31147408;28;20217;-54
2024/01/28 03:50:45;;;;;;;2.22;1.70;;;;;;;21.62;46.44;102070.97;31116507;28;20228;-51
2024/01/28 04:05:49;;;;;;;203.35;129.05;;;;;;;21.80;46.21;102060.69;31092704;28;20231;-56
2024/01/28 04:20:52;;;;;;;229.38;147.93;;;;;;;22.27;45.40;102053.72;31113825;28;20239;-55
2024/01/28 04:35:55;;;;;;;228.98;149.45;;;;;;;22.39;45.71;102051.16;31128297;28;20225;-55
2024/01/28 04:51:01;;;;;;;179.52;114.60;;;;;;;22.46;44.86;102020.31;31152303;28;20221;-54
2024/01/28 05:06:04;;;;;;;157.77;104.15;;;;;;;22.83;42.99;101989.94;31191610;28;20484;-56
2024/01/28 05:21:07;;;;;;;109.32;70.70;;;;;;;23.00;41.16;101968.13;31174570;28;20229;-56
2024/01/28 05:36:14;;;;;;;132.15;84.85;;;;;;;23.10;41.37;101961.34;31154331;28;20311;-56
2024/01/28 05:51:17;;;;;;;129.75;86.13;;;;;;;23.28;40.82;101939.50;31108389;28;20224;-54
2024/01/28 06:06:20;;;;;;;96.88;64.63;;;;;;;23.57;40.34;101933.28;31168438;28;20207;-54
2024/01/28 06:21:23;;;;;;;71.88;49.17;;;;;;;23.78;40.44;101934.31;31196659;28;20228;-55
2024/01/28 06:36:27;;;;;;;61.95;42.13;;;;;;;23.93;40.45;101924.44;31149041;28;20513;-57
2024/01/28 06:51:30;;;;;;;49.75;34.30;;;;;;;24.04;40.06;101938.00;31148449;28;20221;-54
2024/01/28 07:06:33;;;;;;;44.85;30.58;;;;;;;24.10;40.12;101941.53;31137678;28;20197;-55
2024/01/28 07:21:36;;;;;;;38.17;27.17;;;;;;;24.07;40.11;101943.03;31165747;28;20228;-57
2024/01/28 07:36:39;;;;;;;32.90;22.45;;;;;;;24.01;40.23;101937.84;31123378;28;20221;-55
2024/01/28 07:51:44;;;;;;;114.47;76.72;;;;;;;24.10;39.74;101919.63;31134440;28;20239;-56
2024/01/28 08:06:47;;;;;;;98.05;67.88;;;;;;;24.33;39.32;101910.91;31149693;28;20217;-56
2024/01/28 08:21:50;;;;;;;69.93;50.00;;;;;;;24.18;39.44;101896.00;31164760;28;20225;-56
2024/01/28 08:36:53;;;;;;;53.25;38.33;;;;;;;24.07;40.00;101876.78;31158814;28;20213;-56
2024/01/28 08:51:56;;;;;;;44.15;32.33;;;;;;;23.82;40.48;101862.25;31160805;28;20241;-57
2024/01/28 09:06:59;;;;;;;37.22;26.55;;;;;;;23.65;40.47;101855.69;31147952;28;20201;-58
2024/01/28 09:22:04;;;;;;;32.40;21.35;;;;;;;23.51;40.84;101851.00;31112801;28;20222;-58
2024/01/28 09:37:08;;;;;;;25.10;18.83;;;;;;;23.41;41.62;101837.09;31134622;28;20263;-56
2024/01/28 09:52:11;;;;;;;24.08;17.25;;;;;;;23.34;41.75;101839.63;31113571;28;20279;-56
2024/01/28 10:07:15;;;;;;;192.23;126.90;;;;;;;23.29;42.10;101831.22;31106491;28;20331;-56
2024/01/28 10:22:19;;;;;;;131.63;83.03;;;;;;;23.29;42.29;101817.03;31112258;28;20258;-55
2024/01/28 10:37:22;;;;;;;154.32;101.05;;;;;;;23.29;43.39;101802.00;31113137;28;20319;-54
2024/01/28 10:52:26;;;;;;;182.48;123.20;;;;;;;23.39;44.77;101790.28;31115356;28;20231;-56
2024/01/28 11:07:29;;;;;;;132.85;86.30;;;;;;;23.52;45.86;101775.97;31155506;28;20206;-56
2024/01/28 11:22:46;;;;;;;99.65;66.78;;;;;;;23.60;45.63;101762.09;31125437;28;20287;-55
2024/01/28 11:37:55;;;;;;;276.00;181.52;;;;;;;23.76;46.07;101749.00;31115984;28;20484;-57
2024/01/28 11:52:58;;;;;;;240.52;148.85;;;;;;;23.89;46.19;101736.59;31126308;28;20224;-59
2024/01/28 12:08:03;;;;;;;167.85;109.88;;;;;;;23.89;45.45;101728.06;31073328;28;20209;-58
2024/01/28 12:23:06;;;;;;;134.63;85.38;;;;;;;23.95;45.61;101718.22;31140478;28;20237;-57
2024/01/28 12:38:09;;;;;;;105.85;67.35;;;;;;;23.98;45.20;101694.78;31077110;28;20507;-60
2024/01/28 12:53:12;;;;;;;82.05;54.85;;;;;;;24.08;44.99;101671.66;31088345;28;20228;-57
2024/01/28 13:08:16;;;;;;;68.70;46.95;;;;;;;24.31;44.32;101657.19;31117983;28;20504;-58
2024/01/28 13:23:19;;;;;;;61.90;40.30;;;;;;;24.30;44.83;101649.81;31127660;28;20237;-58
2024/01/28 13:38:22;;;;;;;53.22;35.13;;;;;;;24.19;45.50;101638.81;31129887;28;20539;-55
2024/01/28 13:53:25;;;;;;;43.60;30.65;;;;;;;24.10;45.78;101620.97;31117734;28;20217;-56
2024/01/28 14:08:28;;;;;;;36.20;25.98;;;;;;;24.02;46.11;101604.75;31104942;28;20205;-55
2024/01/28 14:23:31;;;;;;;32.40;22.20;;;;;;;23.95;46.21;101597.94;31113339;28;20574;-57
2024/01/28 14:38:34;;;;;;;26.15;19.33;;;;;;;23.88;46.54;101575.75;31086618;28;20498;-55
2024/01/28 14:53:37;;;;;;;26.40;17.65;;;;;;;23.90;46.96;101572.53;31104307;28;20232;-56
2024/01/28 15:08:40;;;;;;;23.83;16.60;;;;;;;23.63;46.56;101560.44;31128249;28;20205;-57
2024/01/28 15:23:43;;;;;;;23.10;16.35;;;;;;;23.76;47.31;101564.22;31070448;28;20510;-55
2024/01/28 15:38:47;;;;;;;20.95;14.27;;;;;;;23.75;47.48;101554.06;31093769;28;20219;-51
2024/01/28 15:53:50;;;;;;;17.08;12.15;;;;;;;23.62;46.79;101538.06;31092257;28;20806;-58
2024/01/28 16:08:53;;;;;;;27.98;16.10;;;;;;;23.34;44.28;101532.78;31096537;28;20201;-56
2024/01/28 16:23:56;;;;;;;28.10;14.75;;;;;;;23.48;46.23;101526.91;31099898;28;20240;-57
2024/01/28 16:39:01;;;;;;;26.27;17.50;;;;;;;23.05;44.09;101541.22;31119964;28;20513;-58
2024/01/28 16:54:05;;;;;;;25.38;15.70;;;;;;;23.19;44.07;101533.34;31125695;28;20697;-59
2024/01/28 17:09:10;;;;;;;23.08;13.52;;;;;;;23.59;43.88;101527.38;31118145;28;20225;-56
2024/01/28 17:24:13;;;;;;;18.50;12.50;;;;;;;23.65;44.85;101503.25;31088941;28;20290;-55
2024/01/28 17:39:16;;;;;;;87.60;55.50;;;;;;;23.65;47.60;101506.09;31098785;28;20225;-55
2024/01/28 17:54:19;;;;;;;131.32;91.68;;;;;;;23.66;47.58;101511.44;31092164;28;20316;-56
2024/01/28 18:09:22;;;;;;;110.30;74.90;;;;;;;23.62;48.22;101482.06;31104829;28;20518;-53
2024/01/28 18:24:25;;;;;;;220.00;140.35;;;;;;;23.49;47.80;101488.78;31102277;28;20492;-55
2024/01/28 18:39:28;;;;;;;173.55;113.55;;;;;;;23.38;47.95;101482.63;31063663;28;20232;-53
2024/01/28 18:54:31;;;;;;;264.55;159.70;;;;;;;23.34;47.47;101478.81;31067381;28;20328;-53
2024/01/28 19:09:35;;;;;;;190.32;119.32;;;;;;;23.29;46.54;101466.81;31087906;28;20599;-55
2024/01/28 19:24:38;;;;;;;232.52;143.93;;;;;;;23.23;46.58;101462.50;31110458;28;20251;-60
2024/01/28 19:39:41;;;;;;;198.93;125.15;;;;;;;23.15;47.15;101464.19;31105727;28;20647;-58
2024/01/28 19:54:45;;;;;;;165.55;104.25;;;;;;;23.23;46.94;101453.97;31108999;28;20312;-60
2024/01/28 20:09:48;;;;;;;237.48;151.93;;;;;;;23.32;48.43;101438.56;31095177;28;20221;-56
2024/01/28 20:24:52;;;;;;;197.90;127.22;;;;;;;23.29;48.85;101438.41;31098549;28;20662;-56
2024/01/28 20:39:56;;;;;;;171.52;109.82;;;;;;;23.23;49.19;101408.53;31108927;28;20221;-59
2024/01/28 20:54:59;;;;;;;155.18;97.35;;;;;;;23.15;49.00;101404.53;31106407;28;20220;-54
2024/01/28 21:10:02;;;;;;;128.85;86.35;;;;;;;23.10;49.01;101401.91;31114527;28;20221;-55
2024/01/28 21:25:06;;;;;;;270.40;171.60;;;;;;;23.05;50.37;101413.44;31127808;28;20236;-60
2024/01/28 21:40:10;;;;;;;198.10;126.82;;;;;;;23.01;49.77;101403.94;31134563;28;20218;-54
2024/01/28 21:55:13;;;;;;;165.23;104.55;;;;;;;22.98;49.92;101416.00;31123156;28;20308;-58
2024/01/28 22:10:16;;;;;;;234.23;148.52;;;;;;;22.90;49.91;101416.84;31137713;28;20625;-56
2024/01/28 22:25:19;;;;;;;224.25;139.73;;;;;;;22.79;49.83;101425.72;31137840;28;20233;-57
2024/01/28 22:40:22;;;;;;;195.25;123.90;;;;;;;22.72;50.01;101439.56;31130226;28;20239;-56
2024/01/28 22:55:25;;;;;;;175.60;111.15;;;;;;;22.65;50.53;101419.38;31134581;28;20316;-59
2024/01/28 23:10:31;;;;;;;156.55;101.47;;;;;;;22.59;50.43;101414.25;31131411;28;20626;-60
2024/01/28 23:25:36;;;;;;;142.82;90.68;;;;;;;22.54;50.43;101412.41;31125981;28;20520;-59
2024/01/28 23:40:40;;;;;;;125.10;81.72;;;;;;;22.52;50.58;101408.22;31129742;28;20228;-57
2024/01/28 23:55:42;;;;;;;123.70;78.50;;;;;;;22.47;51.11;101414.91;31128752;28;20259;-59
